Renton, Washington
Current Conditions -  °F | °C
As of 1:53 AM on Saturday 25 Oct 2014 (Local Time) from KRNT Reporting Station
Broken Clouds Broken Clouds  
Wind Chill: 52°   Ceiling: 10000
Heat Index: 52°   Visibility: 10mi
Dew Point: 50°   Wind: 10mph
Humidity: 93%   Direction: 300°WNW
Pressure: 29.65"   Gusts: NA
Location:  47.48°N, 122.2°W
Report Text: KRNT 250853Z AUTO 30009KT 10SM BKN100 11/10 A2965 RMK AO2 SLP046 60001 T01110100 56044
Loading
Personal Weather Stations






























Interactive Weather Map
Tropical Storm Tracking
New forecast layout! Learn more

10-Day Weather Forecast

Advertisements
Track Severe Weather on mobile